Time;durP1;ratioP1;P1;durP2;ratioP2;P2;SDS_P1;SDS_P2;PMS_P1;PMS_P2;Temp;Humidity;BMP_temperature;BMP_pressure;BME280_temperature;BME280_humidity;BME280_pressure;Samples;Min_cycle;Max_cycle;Signal;HPM_P1;HPM_P2
2022/10/21 08:14:38;;;;;;;46.90;22.60;;;;;;;12.78;100.00;100652.84;6363152;22;20033;-74
2022/10/21 08:17:04;;;;;;;40.22;21.30;;;;;;;12.89;100.00;100659.28;6365767;22;20017;-74
2022/10/21 08:19:29;;;;;;;45.63;23.05;;;;;;;12.89;100.00;100669.72;6360282;22;20010;-73
2022/10/21 08:24:24;;;;;;;48.53;22.67;;;;;;;12.98;100.00;100667.31;6361460;22;20018;-74
2022/10/21 08:26:50;;;;;;;45.65;22.20;;;;;;;12.97;100.00;100662.91;6360912;22;20014;-74
2022/10/21 08:29:16;;;;;;;47.47;25.63;;;;;;;13.02;100.00;100646.44;6362739;22;20122;-73
2022/10/21 08:31:41;;;;;;;50.40;25.85;;;;;;;13.14;100.00;100661.31;6365129;22;20362;-73
2022/10/21 08:34:07;;;;;;;42.40;22.63;;;;;;;13.17;100.00;100663.31;6358478;22;20368;-74
2022/10/21 08:36:32;;;;;;;49.47;24.70;;;;;;;13.17;100.00;100666.91;6361664;22;19998;-74
2022/10/21 08:38:58;;;;;;;49.17;24.15;;;;;;;13.15;100.00;100666.50;6359862;22;20006;-73
2022/10/21 08:41:29;;;;;;;45.55;22.98;;;;;;;13.25;100.00;100658.50;6359798;22;19998;-74
2022/10/21 08:44:05;;;;;;;44.10;22.17;;;;;;;13.22;100.00;100665.75;6333097;22;20013;-74
2022/10/21 08:46:46;;;;;;;43.22;21.83;;;;;;;13.32;100.00;100664.16;6362593;22;19998;-74
2022/10/21 08:49:19;;;;;;;51.40;22.52;;;;;;;13.33;100.00;100657.34;6360918;22;20047;-74
2022/10/21 08:51:50;;;;;;;42.60;21.73;;;;;;;13.35;100.00;100657.72;6361573;22;20006;-73
2022/10/21 08:54:20;;;;;;;32.95;19.45;;;;;;;13.36;100.00;100662.94;6363251;22;20070;-74
2022/10/21 08:56:49;;;;;;;42.55;21.05;;;;;;;13.42;100.00;100652.09;6359365;22;20251;-73
2022/10/21 08:59:24;;;;;;;39.65;20.00;;;;;;;13.47;100.00;100668.56;6361037;22;19998;-73
2022/10/21 09:02:29;;;;;;;34.22;18.25;;;;;;;13.54;100.00;100662.94;6360363;22;20006;-74
2022/10/21 09:05:18;;;;;;;37.97;19.25;;;;;;;13.55;100.00;100661.72;6316203;22;20469;-73
2022/10/21 09:08:09;;;;;;;32.95;17.75;;;;;;;13.59;100.00;100656.09;6332891;22;20449;-73
2022/10/21 09:10:37;;;;;;;39.67;19.20;;;;;;;13.75;100.00;100664.13;6357855;22;20078;-74
2022/10/21 09:13:19;;;;;;;39.90;19.55;;;;;;;13.78;100.00;100663.28;6356107;22;20380;-74
2022/10/21 09:16:01;;;;;;;37.20;19.92;;;;;;;13.80;100.00;100666.50;6359570;22;20051;-73
2022/10/21 09:18:37;;;;;;;33.55;17.35;;;;;;;13.84;100.00;100670.09;6325914;22;20009;-74
2022/10/21 09:21:12;;;;;;;37.53;17.08;;;;;;;13.90;100.00;100662.88;6354671;22;20006;-75
2022/10/21 09:24:06;;;;;;;33.97;17.95;;;;;;;13.88;100.00;100667.28;6357570;22;20357;-75
2022/10/21 09:26:46;;;;;;;37.88;18.35;;;;;;;13.89;100.00;100664.06;6353169;22;20010;-75
2022/10/21 09:29:21;;;;;;;34.10;17.02;;;;;;;13.92;100.00;100659.66;6327560;22;19994;-73
2022/10/21 09:31:47;;;;;;;40.88;19.73;;;;;;;13.98;100.00;100661.63;6354116;22;20047;-74
2022/10/21 09:34:39;;;;;;;32.50;17.13;;;;;;;13.98;100.00;100660.84;6327629;22;20107;-74
2022/10/21 09:37:10;;;;;;;33.43;18.10;;;;;;;13.97;100.00;100676.91;6326020;22;20760;-74
2022/10/21 09:39:41;;;;;;;27.70;15.75;;;;;;;13.92;100.00;100671.69;6354073;22;20045;-73
2022/10/21 09:42:11;;;;;;;30.65;16.98;;;;;;;14.04;100.00;100670.47;6356269;22;20430;-73
2022/10/21 09:44:36;;;;;;;30.35;16.33;;;;;;;14.14;100.00;100669.59;6356601;22;20010;-73
2022/10/21 09:47:14;;;;;;;32.10;16.30;;;;;;;14.11;100.00;100672.44;6330268;22;20002;-75
2022/10/21 09:49:46;;;;;;;33.17;15.18;;;;;;;14.15;100.00;100667.63;6357183;22;20430;-74
2022/10/21 09:52:13;;;;;;;35.17;15.98;;;;;;;14.19;100.00;100662.78;6329890;22;20010;-74
2022/10/21 09:54:41;;;;;;;29.85;16.15;;;;;;;14.24;100.00;100663.13;6357252;22;20482;-74
2022/10/21 09:57:19;;;;;;;31.38;14.90;;;;;;;14.26;100.00;100671.19;6364244;22;20410;-74
2022/10/21 09:59:58;;;;;;;31.13;16.00;;;;;;;14.28;100.00;100680.03;6360935;22;20002;-73
2022/10/21 10:02:36;;;;;;;34.00;15.70;;;;;;;14.31;100.00;100673.56;6358646;22;20009;-74
2022/10/21 10:05:37;;;;;;;26.98;15.85;;;;;;;14.28;100.00;100674.38;6361239;22;20107;-74
2022/10/21 10:08:33;;;;;;;28.45;15.38;;;;;;;14.32;100.00;100686.44;6361274;22;20417;-74
2022/10/21 10:11:07;;;;;;;32.60;16.67;;;;;;;14.37;100.00;100691.63;6358717;22;20010;-74
2022/10/21 10:13:34;;;;;;;31.05;16.35;;;;;;;14.40;100.00;100690.84;6362816;22;19998;-73
2022/10/21 10:16:16;;;;;;;27.20;15.13;;;;;;;14.38;100.00;100698.88;6330433;22;20346;-74
2022/10/21 10:18:43;;;;;;;27.98;14.70;;;;;;;14.43;100.00;100694.84;6360112;22;19998;-74
2022/10/21 10:21:14;;;;;;;27.55;15.18;;;;;;;14.42;100.00;100690.44;6332130;22;20006;-73
2022/10/21 10:23:53;;;;;;;24.15;14.52;;;;;;;14.46;100.00;100696.03;6362215;22;20049;-74
2022/10/21 10:26:22;;;;;;;24.85;13.48;;;;;;;14.48;100.00;100699.25;6357846;22;20089;-73
2022/10/21 10:28:50;;;;;;;27.98;14.45;;;;;;;14.56;100.00;100689.56;6358398;22;20082;-75
2022/10/21 10:31:23;;;;;;;31.98;14.82;;;;;;;14.60;100.00;100679.09;6361874;22;20002;-75
2022/10/21 10:34:04;;;;;;;26.60;14.35;;;;;;;14.63;100.00;100707.25;6362720;22;20006;-75
2022/10/21 10:36:34;;;;;;;26.88;13.95;;;;;;;14.67;100.00;100693.13;6361754;22;20005;-76
2022/10/21 10:39:01;;;;;;;27.38;13.68;;;;;;;14.61;100.00;100686.34;6360326;22;20409;-76
2022/10/21 10:41:37;;;;;;;22.83;12.50;;;;;;;14.66;100.00;100699.19;6358478;22;20066;-76
2022/10/21 10:57:33;;;;;;;21.63;11.35;;;;;;;14.77;100.00;100706.38;5054354;27;20913;-74
2022/10/21 11:00:10;;;;;;;23.55;11.88;;;;;;;14.80;100.00;100685.84;5069728;28;20028;-74
2022/10/21 11:02:42;;;;;;;24.40;13.82;;;;;;;14.84;100.00;100700.69;5053598;28;20476;-74
2022/10/21 11:05:18;;;;;;;22.23;13.43;;;;;;;14.86;100.00;100685.38;5069650;28;20475;-74
2022/10/21 11:08:00;;;;;;;22.50;13.50;;;;;;;14.93;100.00;100697.44;5075559;28;20280;-74
2022/10/21 11:10:38;;;;;;;26.85;13.90;;;;;;;14.99;100.00;100689.34;5069024;28;20037;-73
2022/10/21 11:13:10;;;;;;;26.67;12.75;;;;;;;14.99;100.00;100678.88;5051227;28;20025;-73
2022/10/21 11:16:15;;;;;;;25.88;12.93;;;;;;;15.03;100.00;100684.44;5053725;28;20090;-73
2022/10/21 11:18:49;;;;;;;23.95;12.38;;;;;;;15.08;100.00;100697.34;5058076;28;20044;-74
2022/10/21 11:21:32;;;;;;;23.38;13.98;;;;;;;15.16;100.00;100684.78;5050990;28;20064;-74
2022/10/21 11:24:15;;;;;;;29.20;12.18;;;;;;;15.20;100.00;100683.53;5055867;28;20040;-74
2022/10/21 11:27:07;;;;;;;24.63;13.18;;;;;;;15.17;100.00;100670.25;5045083;28;20123;-74
2022/10/21 11:29:56;;;;;;;25.30;12.40;;;;;;;15.23;100.00;100688.34;5033207;28;20067;-74
2022/10/21 11:32:33;;;;;;;22.70;11.73;;;;;;;15.24;100.00;100684.31;5053244;28;20033;-74
2022/10/21 11:35:14;;;;;;;21.05;11.57;;;;;;;15.27;100.00;100687.53;5047289;28;20055;-74
2022/10/21 11:38:14;;;;;;;23.77;13.13;;;;;;;15.27;100.00;100691.16;5029779;28;20108;-74
2022/10/21 11:40:45;;;;;;;29.50;13.85;;;;;;;15.31;100.00;100686.28;5042474;28;20663;-74
2022/10/21 11:43:29;;;;;;;24.13;10.93;;;;;;;15.51;100.00;100683.66;5027094;28;20024;-74
2022/10/21 11:45:57;;;;;;;27.75;11.95;;;;;;;15.48;100.00;100678.88;5027259;28;20059;-75
2022/10/21 11:48:43;;;;;;;24.80;11.52;;;;;;;15.45;100.00;100685.34;5046859;28;20029;-75
2022/10/21 11:51:30;;;;;;;22.30;11.60;;;;;;;15.48;100.00;100681.69;5033469;28;20495;-75
2022/10/21 11:54:14;;;;;;;20.20;11.07;;;;;;;15.45;100.00;100676.88;5047261;28;20036;-74
2022/10/21 11:56:51;;;;;;;33.47;11.73;;;;;;;15.45;100.00;100676.88;5050630;28;20044;-75
2022/10/21 11:59:43;;;;;;;24.42;11.93;;;;;;;15.52;100.00;100676.81;5046338;28;20392;-75
2022/10/21 12:02:39;;;;;;;16.85;11.20;;;;;;;15.48;100.00;100678.88;5051945;28;20056;-75
2022/10/21 12:05:26;;;;;;;21.88;10.68;;;;;;;15.48;100.00;100678.09;5052766;28;20025;-75
2022/10/21 12:08:22;;;;;;;26.95;13.10;;;;;;;15.51;100.00;100678.03;5039516;28;20028;-75
2022/10/21 12:11:06;;;;;;;37.25;11.77;;;;;;;15.46;100.00;100684.13;5033680;28;20082;-75
2022/10/21 12:13:39;;;;;;;22.42;10.52;;;;;;;15.51;100.00;100678.03;5036189;28;20049;-75
2022/10/21 12:16:08;;;;;;;21.05;11.10;;;;;;;15.50;100.00;100678.47;5020832;28;20123;-75
2022/10/21 12:18:42;;;;;;;20.30;8.68;;;;;;;15.62;100.00;100663.81;5037850;28;20037;-75
2022/10/21 12:21:15;;;;;;;18.02;11.57;;;;;;;15.61;100.00;100679.97;5036996;28;20484;-75
2022/10/21 12:23:41;;;;;;;19.10;10.80;;;;;;;15.71;100.00;100678.25;5015428;28;20151;-75
2022/10/21 12:26:28;;;;;;;24.17;8.77;;;;;;;15.90;100.00;100667.63;5015733;28;20024;-73
2022/10/21 12:29:16;;;;;;;19.95;10.45;;;;;;;16.03;100.00;100663.81;5034868;28;20044;-74
2022/10/21 12:31:54;;;;;;;19.63;10.05;;;;;;;16.07;100.00;100663.78;5021652;28;20033;-74
2022/10/21 12:34:21;;;;;;;16.73;9.35;;;;;;;16.00;100.00;100664.69;5033349;28;20033;-74
2022/10/21 12:36:49;;;;;;;17.58;9.38;;;;;;;15.91;100.00;100658.72;5019188;28;20029;-74
2022/10/21 12:39:41;;;;;;;21.30;10.93;;;;;;;15.93;100.00;100661.91;5035547;28;20384;-74
2022/10/21 12:42:16;;;;;;;17.63;9.23;;;;;;;15.99;100.00;100660.25;5028601;28;20048;-74
2022/10/21 12:44:50;;;;;;;19.73;8.65;;;;;;;16.11;100.00;100660.94;5029498;28;20021;-74
2022/10/21 12:47:43;;;;;;;18.35;9.93;;;;;;;16.16;100.00;100657.63;5033012;28;20657;-74
2022/10/21 12:50:30;;;;;;;20.92;9.23;;;;;;;16.27;100.00;100658.28;5041769;28;20039;-75
2022/10/21 12:53:32;;;;;;;14.27;7.30;;;;;;;16.26;100.00;100656.72;5035520;28;20037;-74
2022/10/21 12:55:59;;;;;;;16.65;8.15;;;;;;;16.37;100.00;100654.53;5029412;28;20040;-74
2022/10/21 12:58:30;;;;;;;13.70;7.93;;;;;;;16.39;100.00;100663.38;5036820;28;20037;-75
2022/10/21 13:00:57;;;;;;;16.58;8.40;;;;;;;16.44;100.00;100651.63;5016437;28;20040;-74
2022/10/21 13:03:54;;;;;;;17.63;9.93;;;;;;;16.37;100.00;100651.72;5032471;28;21630;-74
2022/10/21 13:06:55;;;;;;;16.48;9.65;;;;;;;16.54;100.00;100654.72;5011488;28;20037;-74
2022/10/21 13:09:42;;;;;;;13.57;8.48;;;;;;;16.66;100.00;100657.78;5032467;28;20095;-74
2022/10/21 13:12:07;;;;;;;13.93;8.18;;;;;;;16.64;100.00;100648.94;5033905;28;20054;-75
2022/10/21 13:14:43;;;;;;;15.95;7.45;;;;;;;16.66;100.00;100652.13;5034408;28;20037;-75
2022/10/21 13:17:20;;;;;;;14.85;8.30;;;;;;;16.71;100.00;100638.75;5031366;28;20442;-75
2022/10/21 13:19:58;;;;;;;14.27;7.35;;;;;;;16.66;100.00;100625.91;5039077;28;20104;-73
2022/10/21 13:22:36;;;;;;;17.45;8.65;;;;;;;16.38;100.00;100625.09;5037044;28;20303;-73
2022/10/21 13:25:23;;;;;;;14.60;7.90;;;;;;;16.33;100.00;100645.31;5032506;28;20028;-73
2022/10/21 13:27:59;;;;;;;12.80;6.80;;;;;;;16.24;100.00;100659.94;5025100;28;20519;-73
2022/10/21 13:30:31;;;;;;;17.45;7.28;;;;;;;16.29;100.00;100644.56;5034250;28;20553;-73
2022/10/21 13:33:03;;;;;;;13.90;7.00;;;;;;;16.36;100.00;100643.66;5036131;28;20083;-73
2022/10/21 13:35:42;;;;;;;11.90;7.40;;;;;;;16.43;100.00;100658.50;5033281;28;20033;-73
2022/10/21 13:38:30;;;;;;;16.60;7.75;;;;;;;16.32;100.00;100655.03;5036330;28;20047;-73
2022/10/21 13:41:02;;;;;;;12.63;7.45;;;;;;;16.27;100.00;100652.66;5033737;28;20029;-73
2022/10/21 13:43:33;;;;;;;14.68;7.65;;;;;;;16.26;100.00;100663.16;5022689;28;20496;-73
2022/10/21 13:46:06;;;;;;;14.65;7.20;;;;;;;16.30;100.00;100657.47;5024895;28;20911;-73
2022/10/21 13:48:38;;;;;;;15.02;7.25;;;;;;;16.28;100.00;100659.13;5010968;28;20032;-73
2022/10/21 13:51:20;;;;;;;16.53;6.97;;;;;;;16.18;100.00;100661.63;5028918;28;20085;-73
2022/10/21 13:53:46;;;;;;;15.40;7.43;;;;;;;16.22;100.00;100667.25;5033788;28;20449;-74
2022/10/21 13:56:20;;;;;;;13.40;7.13;;;;;;;16.20;100.00;100664.03;5031119;28;20045;-73
2022/10/21 13:58:49;;;;;;;13.75;7.15;;;;;;;16.23;100.00;100663.19;5034738;28;20028;-74
2022/10/21 14:01:21;;;;;;;14.60;7.72;;;;;;;16.25;100.00;100667.22;5019175;28;20031;-73
2022/10/21 14:03:50;;;;;;;16.25;7.82;;;;;;;16.24;100.00;100670.44;5032449;28;20033;-73
2022/10/21 14:06:29;;;;;;;17.27;7.15;;;;;;;16.26;100.00;100665.19;5032892;28;20021;-73
2022/10/21 14:08:56;;;;;;;14.23;7.10;;;;;;;16.29;100.00;100669.97;5035901;28;20029;-73
2022/10/21 14:11:31;;;;;;;14.20;7.72;;;;;;;16.26;100.00;100670.81;5036248;28;20036;-73
2022/10/21 14:14:01;;;;;;;18.48;8.70;;;;;;;16.27;100.00;100675.25;5027567;28;20039;-73
2022/10/21 14:16:36;;;;;;;15.88;8.40;;;;;;;16.29;100.00;100683.28;5032303;28;20044;-73
2022/10/21 14:19:07;;;;;;;13.38;7.70;;;;;;;16.26;100.00;100682.91;5031965;28;20059;-73
2022/10/21 14:21:36;;;;;;;16.30;7.07;;;;;;;16.35;100.00;100688.06;5029875;28;20412;-73
2022/10/21 14:24:02;;;;;;;16.08;7.53;;;;;;;16.40;100.00;100683.94;5033974;28;20056;-74
2022/10/21 14:26:32;;;;;;;11.90;6.47;;;;;;;16.43;100.00;100692.41;5032773;28;20029;-73
2022/10/21 14:28:59;;;;;;;12.38;7.18;;;;;;;16.49;100.00;100686.28;5039351;28;20441;-73
2022/10/21 14:31:25;;;;;;;15.73;8.88;;;;;;;16.50;100.00;100693.53;5032257;28;20443;-73
2022/10/21 14:33:51;;;;;;;13.75;7.93;;;;;;;16.41;100.00;100686.38;5032765;28;20043;-74
2022/10/21 14:36:23;;;;;;;18.27;7.68;;;;;;;16.41;100.00;100683.53;5034148;28;20045;-73
2022/10/21 14:38:48;;;;;;;;;;;;;;;16.46;100.00;100688.75;5037491;28;20112;-74
2022/10/21 14:41:20;;;;;;;16.53;8.23;;;;;;;16.45;100.00;100687.13;5037422;28;19916;-74
2022/10/21 14:43:49;;;;;;;13.75;7.45;;;;;;;16.40;100.00;100684.78;5033877;28;20847;-73
2022/10/21 14:46:15;;;;;;;12.95;7.38;;;;;;;16.36;100.00;100677.53;5031880;28;20768;-75
2022/10/21 14:48:54;;;;;;;16.58;7.65;;;;;;;16.33;100.00;100667.91;5030084;28;20024;-74
2022/10/21 14:51:21;;;;;;;14.40;8.15;;;;;;;16.34;100.00;100675.16;5032230;28;20029;-75
2022/10/21 14:54:00;;;;;;;12.82;7.25;;;;;;;16.38;100.00;100673.09;5015954;28;20029;-74
2022/10/21 14:56:42;;;;;;;14.52;7.72;;;;;;;16.32;100.00;100677.63;5021235;28;20036;-73
2022/10/21 14:59:20;;;;;;;9.82;6.68;;;;;;;16.35;100.00;100690.88;5032331;28;20488;-73
2022/10/21 15:01:46;;;;;;;15.13;7.85;;;;;;;16.34;100.00;100680.81;5028249;28;20057;-73
2022/10/21 15:04:39;;;;;;;12.52;7.10;;;;;;;16.33;100.00;100684.84;5030514;28;20067;-73
2022/10/21 15:07:04;;;;;;;18.48;7.65;;;;;;;16.33;100.00;100687.66;5035952;28;20592;-73
2022/10/21 15:09:29;;;;;;;15.13;7.35;;;;;;;16.33;100.00;100693.31;5040115;28;20064;-73
2022/10/21 15:11:55;;;;;;;15.35;7.90;;;;;;;16.31;100.00;100687.28;5040486;28;20033;-73
2022/10/21 15:14:30;;;;;;;16.27;7.88;;;;;;;16.29;100.00;100689.75;5014437;28;20080;-73
2022/10/21 15:16:59;;;;;;;15.70;8.40;;;;;;;16.28;100.00;100687.34;5029169;28;20901;-75
2022/10/21 15:19:47;;;;;;;14.73;8.70;;;;;;;16.25;100.00;100684.16;5034837;28;20365;-75
2022/10/21 15:22:29;;;;;;;15.13;8.20;;;;;;;16.26;100.00;100688.56;5050772;28;20054;-74
2022/10/21 15:25:04;;;;;;;23.98;8.75;;;;;;;16.29;100.00;100684.09;5012736;28;20068;-72
2022/10/21 15:27:31;;;;;;;19.95;9.82;;;;;;;16.31;100.00;100687.28;5029332;28;20021;-72
2022/10/21 15:30:04;;;;;;;23.27;10.23;;;;;;;16.33;100.00;100684.06;5026009;28;20124;-72
2022/10/21 15:32:29;;;;;;;17.23;8.07;;;;;;;16.33;100.00;100684.84;5034924;28;20036;-72
2022/10/21 15:34:55;;;;;;;17.50;8.60;;;;;;;16.32;100.00;100694.56;5039981;28;20407;-73
2022/10/21 15:37:20;;;;;;;14.85;8.55;;;;;;;16.30;100.00;100699.03;5040793;28;20033;-73
2022/10/21 15:39:47;;;;;;;11.90;6.00;;;;;;;16.21;100.00;100691.03;5032446;28;20025;-73
2022/10/21 15:42:15;;;;;;;14.70;8.98;;;;;;;16.19;100.00;100694.31;5052900;28;20111;-72
2022/10/21 15:44:45;;;;;;;18.02;9.48;;;;;;;16.16;100.00;100691.53;5046074;28;20061;-71
2022/10/21 15:47:10;;;;;;;32.05;10.95;;;;;;;16.13;100.00;100683.88;5037040;28;20559;-72
2022/10/21 15:49:40;;;;;;;29.55;11.65;;;;;;;16.01;100.00;100691.69;5033679;28;20035;-72
2022/10/21 15:52:06;;;;;;;25.10;13.10;;;;;;;16.02;100.00;100693.28;5037069;28;20025;-72
2022/10/21 15:54:31;;;;;;;26.27;12.63;;;;;;;16.00;100.00;100692.09;5039151;28;20033;-73
2022/10/21 15:56:59;;;;;;;17.80;10.73;;;;;;;15.93;100.00;100701.44;5035469;28;20069;-73
2022/10/21 15:59:30;;;;;;;19.92;11.27;;;;;;;15.87;100.00;100697.47;5038444;28;20814;-73
2022/10/21 16:01:56;;;;;;;25.52;11.13;;;;;;;15.83;100.00;100702.34;5021080;28;20037;-72
2022/10/21 16:04:21;;;;;;;17.77;10.25;;;;;;;15.83;100.00;100711.63;5052670;28;20826;-72
2022/10/21 16:06:48;;;;;;;22.67;10.95;;;;;;;15.80;100.00;100709.63;5039612;28;20033;-73
2022/10/21 16:09:19;;;;;;;24.45;12.50;;;;;;;15.80;100.00;100708.84;5034919;28;20104;-73
2022/10/21 16:11:47;;;;;;;23.65;15.23;;;;;;;15.76;100.00;100713.72;5033692;28;20490;-73
2022/10/21 16:14:13;;;;;;;27.70;16.10;;;;;;;15.74;100.00;100713.34;5026946;28;20468;-73
2022/10/21 16:16:46;;;;;;;20.02;12.90;;;;;;;15.71;100.00;100700.84;5028229;28;20029;-73
2022/10/21 16:19:12;;;;;;;24.95;14.18;;;;;;;15.67;100.00;100702.88;5040886;28;20036;-73
2022/10/21 16:21:38;;;;;;;28.23;13.75;;;;;;;15.64;100.00;100704.53;5043940;28;20083;-74
2022/10/21 16:24:03;;;;;;;20.92;12.95;;;;;;;15.63;100.00;100699.28;5041726;28;20033;-73
2022/10/21 16:26:29;;;;;;;19.50;11.88;;;;;;;15.61;100.00;100705.34;5042376;28;20024;-73
2022/10/21 16:28:56;;;;;;;20.42;12.98;;;;;;;15.58;100.00;100703.38;5034539;28;20040;-74
2022/10/21 16:31:22;;;;;;;18.50;12.07;;;;;;;15.57;100.00;100706.59;5043095;28;20035;-73
2022/10/21 16:33:47;;;;;;;15.98;12.13;;;;;;;15.53;100.00;100708.66;5021000;28;20392;-73
2022/10/21 16:36:15;;;;;;;15.63;12.20;;;;;;;15.53;100.00;100708.66;5034247;28;20033;-73
2022/10/21 16:38:42;;;;;;;15.07;12.60;;;;;;;15.51;100.00;100713.91;5031218;28;20029;-73
2022/10/21 16:41:13;;;;;;;19.83;12.40;;;;;;;15.48;100.00;100709.91;5027756;28;20044;-73
2022/10/21 16:43:39;;;;;;;16.08;12.70;;;;;;;15.45;100.00;100705.06;5035065;28;20474;-73
2022/10/21 16:46:04;;;;;;;22.17;14.18;;;;;;;15.44;100.00;100709.94;5031309;28;20029;-73
2022/10/21 16:48:30;;;;;;;16.70;12.35;;;;;;;15.42;100.00;100714.38;5032241;28;20043;-73
2022/10/21 16:50:56;;;;;;;16.73;12.73;;;;;;;15.39;100.00;100712.38;5031325;28;20090;-74
2022/10/21 16:53:24;;;;;;;18.35;12.23;;;;;;;15.39;100.00;100718.84;5033645;28;20037;-74
2022/10/21 16:55:49;;;;;;;21.48;13.15;;;;;;;15.37;100.00;100714.84;5031119;28;20069;-74
2022/10/21 16:58:15;;;;;;;19.42;12.82;;;;;;;15.33;100.00;100712.03;5040405;28;20068;-74
2022/10/21 17:00:41;;;;;;;17.50;13.18;;;;;;;15.29;100.00;100727.38;5046065;28;20028;-74
2022/10/21 17:03:10;;;;;;;16.77;12.10;;;;;;;15.25;100.00;100724.59;5015886;28;20759;-75
2022/10/21 17:05:35;;;;;;;16.10;11.70;;;;;;;15.25;100.00;100733.84;5036286;28;20044;-74
2022/10/21 17:08:00;;;;;;;18.92;12.60;;;;;;;15.14;100.00;100747.22;5038746;28;20029;-75
2022/10/21 17:10:26;;;;;;;16.60;12.57;;;;;;;15.09;100.00;100750.47;5045889;28;20035;-75
2022/10/21 17:12:57;;;;;;;17.17;12.02;;;;;;;15.05;100.00;100738.41;5047409;28;20396;-75
2022/10/21 17:15:23;;;;;;;18.50;11.85;;;;;;;15.05;100.00;100755.31;5030168;28;20126;-74
2022/10/21 17:17:49;;;;;;;16.30;11.50;;;;;;;14.99;100.00;100751.34;5045691;28;20029;-74
2022/10/21 17:20:14;;;;;;;16.85;11.13;;;;;;;14.94;100.00;100744.09;5045686;28;20435;-74
2022/10/21 17:22:39;;;;;;;19.13;12.60;;;;;;;14.92;100.00;100751.38;5030816;28;20049;-74
2022/10/21 17:25:05;;;;;;;19.77;11.60;;;;;;;14.88;100.00;100750.59;5049586;28;20494;-74
2022/10/21 17:27:30;;;;;;;15.23;10.55;;;;;;;14.86;100.00;100758.66;5048793;28;20075;-74
2022/10/21 17:29:55;;;;;;;16.38;10.88;;;;;;;14.82;100.00;100759.47;5034746;28;20040;-74
2022/10/21 17:32:23;;;;;;;18.60;11.15;;;;;;;14.77;100.00;100756.28;5039966;28;20152;-74
2022/10/21 17:34:49;;;;;;;18.30;11.07;;;;;;;14.74;100.00;100757.91;5049277;28;20035;-74
2022/10/21 17:37:14;;;;;;;24.48;12.02;;;;;;;14.70;100.00;100754.31;5041371;28;20040;-74
2022/10/21 17:39:40;;;;;;;16.67;10.60;;;;;;;14.66;100.00;100761.19;5030475;28;20159;-75
2022/10/21 17:42:05;;;;;;;17.67;11.18;;;;;;;14.64;100.00;100761.56;5045116;28;20051;-75
2022/10/21 17:44:32;;;;;;;27.73;11.45;;;;;;;14.59;100.00;100767.66;5028746;28;20078;-74
2022/10/21 17:46:57;;;;;;;20.13;10.68;;;;;;;14.58;100.00;100772.44;5025999;28;20017;-74
2022/10/21 17:49:25;;;;;;;15.43;9.50;;;;;;;14.54;100.00;100770.84;5039473;28;20036;-74
2022/10/21 17:51:53;;;;;;;12.75;9.43;;;;;;;14.53;100.00;100777.69;5022648;28;20021;-74
2022/10/21 17:54:21;;;;;;;15.90;10.23;;;;;;;14.53;100.00;100780.50;5044800;28;20469;-74
2022/10/21 17:56:48;;;;;;;14.60;9.50;;;;;;;14.50;100.00;100782.09;5034123;28;20053;-74
2022/10/21 17:59:14;;;;;;;15.90;9.95;;;;;;;14.49;100.00;100788.16;5046768;28;20086;-74
2022/10/21 18:01:39;;;;;;;13.52;10.68;;;;;;;14.44;100.00;100790.19;5046737;28;20037;-74
2022/10/21 18:04:05;;;;;;;18.83;12.38;;;;;;;14.38;100.00;100786.19;5025219;28;20040;-74
2022/10/21 18:06:30;;;;;;;20.45;11.43;;;;;;;14.41;100.00;100784.56;5035025;28;20480;-74
2022/10/21 18:08:57;;;;;;;19.90;12.50;;;;;;;14.36;100.00;100788.59;5037721;28;20025;-74
2022/10/21 18:11:22;;;;;;;16.88;11.00;;;;;;;14.33;100.00;100782.97;5034051;28;20489;-72
2022/10/21 18:13:48;;;;;;;17.27;12.40;;;;;;;14.34;100.00;100779.75;5037710;28;20124;-72
2022/10/21 18:16:17;;;;;;;17.52;11.00;;;;;;;14.34;100.00;100779.75;5033692;28;20029;-72
2022/10/21 18:18:44;;;;;;;22.10;13.27;;;;;;;14.31;100.00;100780.56;5030277;28;20710;-72
2022/10/21 18:21:12;;;;;;;21.85;12.70;;;;;;;14.30;100.00;100787.41;5032292;28;20120;-71
2022/10/21 18:23:39;;;;;;;19.25;12.35;;;;;;;14.29;100.00;100785.78;5030977;28;20515;-72
2022/10/21 18:26:19;;;;;;;19.38;14.15;;;;;;;14.24;100.00;100789.81;5033824;28;20082;-72
2022/10/21 18:28:49;;;;;;;21.50;13.52;;;;;;;14.23;100.00;100781.81;5032627;28;20484;-72
2022/10/21 18:31:18;;;;;;;18.25;12.48;;;;;;;14.25;100.00;100776.53;5034862;28;20400;-72
2022/10/21 18:33:44;;;;;;;16.30;11.98;;;;;;;14.18;100.00;100782.19;5011910;28;20484;-72
2022/10/21 18:36:11;;;;;;;16.58;11.32;;;;;;;14.15;100.00;100780.22;5028742;28;20091;-72
2022/10/21 18:38:37;;;;;;;20.98;12.10;;;;;;;14.17;100.00;100786.22;5030768;28;20033;-72
2022/10/21 18:41:07;;;;;;;19.38;12.55;;;;;;;14.16;100.00;100784.63;5027351;28;20039;-73
2022/10/21 18:43:34;;;;;;;18.20;12.77;;;;;;;14.16;100.00;100782.59;5028374;28;20045;-72
2022/10/21 18:45:59;;;;;;;15.48;10.82;;;;;;;14.14;100.00;100792.66;5029830;28;20043;-72
2022/10/21 18:48:25;;;;;;;19.40;11.73;;;;;;;14.13;100.00;100785.44;5032614;28;20037;-72
2022/10/21 18:50:50;;;;;;;17.65;11.57;;;;;;;14.12;100.00;100797.88;5043483;28;20032;-72
2022/10/21 18:53:16;;;;;;;16.95;11.23;;;;;;;14.10;100.00;100791.84;5035228;28;20031;-72
2022/10/21 18:55:41;;;;;;;19.23;12.00;;;;;;;14.07;100.00;100787.06;5038063;28;20033;-72
2022/10/21 18:58:06;;;;;;;16.35;11.40;;;;;;;14.05;100.00;100789.47;5038088;28;20456;-72
2022/10/21 19:00:32;;;;;;;15.57;10.50;;;;;;;14.01;100.00;100790.25;5039695;28;20147;-72
2022/10/21 19:02:57;;;;;;;17.38;10.57;;;;;;;13.99;100.00;100787.03;5029330;28;20124;-72
2022/10/21 19:05:24;;;;;;;18.13;11.07;;;;;;;13.96;100.00;100782.22;5034185;28;20036;-72
2022/10/21 19:07:50;;;;;;;15.27;10.10;;;;;;;13.96;100.00;100787.06;5023244;28;20021;-72
2022/10/21 19:10:15;;;;;;;14.35;9.32;;;;;;;13.95;100.00;100783.44;5041727;28;20084;-72
2022/10/21 19:12:41;;;;;;;15.27;10.02;;;;;;;13.93;100.00;100783.03;5025467;28;20098;-72
2022/10/21 19:15:06;;;;;;;15.55;9.45;;;;;;;13.92;100.00;100780.63;5029573;28;20055;-72
2022/10/21 19:17:32;;;;;;;17.55;10.70;;;;;;;13.89;100.00;100782.22;5029127;28;20028;-72
2022/10/21 19:19:59;;;;;;;13.18;9.43;;;;;;;13.87;100.00;100783.84;5033475;28;20515;-72
2022/10/21 19:22:25;;;;;;;16.95;9.45;;;;;;;13.85;100.00;100783.44;5034223;28;20120;-73
2022/10/21 19:24:51;;;;;;;16.67;10.00;;;;;;;13.83;100.00;100786.69;5036897;28;20051;-72
2022/10/21 19:27:16;;;;;;;18.63;10.45;;;;;;;13.81;100.00;100786.28;5030894;28;20058;-72
2022/10/21 19:29:42;;;;;;;23.42;11.57;;;;;;;13.75;100.00;100779.44;5033451;28;20063;-72
2022/10/21 19:32:08;;;;;;;16.92;11.70;;;;;;;13.74;100.00;100786.25;5028093;28;20055;-72
2022/10/21 19:34:33;;;;;;;14.45;10.65;;;;;;;13.71;100.00;100784.25;5025307;28;20052;-73
2022/10/21 19:36:58;;;;;;;20.70;11.23;;;;;;;13.68;100.00;100785.06;5027570;28;20032;-72
2022/10/21 19:39:24;;;;;;;15.07;10.82;;;;;;;13.68;100.00;100780.25;5028804;28;20076;-72
2022/10/21 19:41:49;;;;;;;16.20;11.65;;;;;;;13.67;100.00;100786.28;5020673;28;20120;-72
2022/10/21 19:44:14;;;;;;;19.10;10.68;;;;;;;13.67;100.00;100786.28;5021782;28;20039;-73
2022/10/21 19:46:40;;;;;;;19.10;12.60;;;;;;;13.68;100.00;100793.50;5024753;28;20025;-72
2022/10/21 19:49:07;;;;;;;21.50;13.13;;;;;;;13.69;100.00;100789.50;5035438;28;20029;-73
2022/10/21 19:51:34;;;;;;;17.63;12.15;;;;;;;13.63;100.00;100792.69;5038700;28;20490;-72
2022/10/21 19:54:02;;;;;;;17.38;10.23;;;;;;;13.62;100.00;100793.91;5038882;28;20480;-72
2022/10/21 19:56:28;;;;;;;18.80;13.02;;;;;;;13.66;100.00;100798.72;5036156;28;20588;-73